Terminal Aerodrome Forecast
Issued by NWS

Home | Current Version | Previous Version | Text Only | Print | Product List | Glossary On
Versions: 1 2 3 4 5 6 7 8 9 10 11 12 13 14 15 16
000
FTUS42 KTAE 192300
TAFDHN
TAF
KDHN 192327Z 2000/2024 02010KT P6SM BKN030 BKN040
     FM200800 02011KT P6SM OVC010
     FM201400 05010KT P6SM SCT010 BKN025
     FM201700 03010KT P6SM SCT025 SCT050=

USA.gov is the U.S. government's official web portal to all federal, state and local government web resources and services.